Time;durP1;ratioP1;P1;durP2;ratioP2;P2;SDS_P1;SDS_P2;PMS_P1;PMS_P2;Temp;Humidity;BMP_temperature;BMP_pressure;BME280_temperature;BME280_humidity;BME280_pressure;Samples;Min_cycle;Max_cycle;Signal;HPM_P1;HPM_P2
2023/06/08 00:01:52;;;;;;;28.60;26.17;;;17.30;99.90;;;;;;5061776;28;20529;-44
2023/06/08 00:04:18;;;;;;;28.23;25.73;;;17.30;99.90;;;;;;5059948;28;20917;-48
2023/06/08 00:06:44;;;;;;;28.70;26.30;;;17.30;99.90;;;;;;5061443;28;20430;-48
2023/06/08 00:09:10;;;;;;;27.40;25.30;;;17.30;99.90;;;;;;5061893;28;20195;-43
2023/06/08 00:11:37;;;;;;;29.50;26.90;;;17.30;99.90;;;;;;5061959;28;20644;-47
2023/06/08 00:14:03;;;;;;;28.27;25.97;;;17.20;99.90;;;;;;5060989;28;20430;-47
2023/06/08 00:16:29;;;;;;;26.90;24.80;;;17.20;99.90;;;;;;5061615;28;20415;-46
2023/06/08 00:18:56;;;;;;;27.80;25.30;;;17.20;99.90;;;;;;5059341;28;20181;-47
2023/06/08 00:21:23;;;;;;;26.70;24.50;;;17.30;99.90;;;;;;5060886;28;20486;-47
2023/06/08 00:23:49;;;;;;;28.43;26.17;;;17.20;99.90;;;;;;5041401;28;20467;-47
2023/06/08 00:26:15;;;;;;;29.33;26.60;;;17.20;99.90;;;;;;5061172;28;20522;-45
2023/06/08 00:28:41;;;;;;;28.30;25.97;;;17.20;99.90;;;;;;5058711;28;20442;-44
2023/06/08 00:31:06;;;;;;;28.60;26.10;;;17.20;99.90;;;;;;5061234;28;20285;-43
2023/06/08 00:33:34;;;;;;;30.20;27.67;;;17.20;99.90;;;;;;5059925;28;20177;-43
2023/06/08 00:36:02;;;;;;;30.20;27.60;;;17.20;99.90;;;;;;5060549;28;20196;-47
2023/06/08 00:38:28;;;;;;;28.80;26.30;;;17.20;99.90;;;;;;5061174;28;20419;-47
2023/06/08 00:40:54;;;;;;;28.40;25.90;;;17.20;99.90;;;;;;5061013;28;20494;-44
2023/06/08 00:43:19;;;;;;;30.10;27.57;;;17.20;99.90;;;;;;5059083;28;20639;-45
2023/06/08 00:45:45;;;;;;;29.50;26.90;;;17.20;99.90;;;;;;5060884;28;20234;-46
2023/06/08 00:48:11;;;;;;;30.07;27.37;;;17.20;99.90;;;;;;5060418;28;20200;-46
2023/06/08 00:50:36;;;;;;;29.90;27.30;;;17.20;99.90;;;;;;5060280;28;20454;-45
2023/06/08 00:53:02;;;;;;;28.90;26.30;;;17.20;99.90;;;;;;5059794;28;20654;-45
2023/06/08 00:55:33;;;;;;;31.60;28.70;;;17.20;99.90;;;;;;5059683;28;20185;-45
2023/06/08 00:58:00;;;;;;;31.00;28.27;;;17.10;99.90;;;;;;5060369;28;20208;-45
2023/06/08 01:00:28;;;;;;;30.10;27.00;;;17.10;99.90;;;;;;5059321;28;20494;-46
2023/06/08 01:02:55;;;;;;;29.77;27.07;;;17.10;99.90;;;;;;5057700;28;21648;-46
2023/06/08 01:05:21;;;;;;;29.70;27.10;;;17.10;99.90;;;;;;5060626;28;20489;-44
2023/06/08 01:08:04;;;;;;;30.30;27.70;;;17.10;99.90;;;;;;5060144;28;20913;-46
2023/06/08 01:10:57;;;;;;;30.33;27.73;;;17.10;99.90;;;;;;5059470;28;20804;-47
2023/06/08 01:13:51;;;;;;;30.13;27.27;;;17.10;99.90;;;;;;5058819;28;20488;-45
2023/06/08 01:16:19;;;;;;;29.17;26.57;;;17.00;99.90;;;;;;5059860;28;20427;-48
2023/06/08 01:18:47;;;;;;;28.90;26.50;;;17.00;99.90;;;;;;5060303;28;20462;-47
2023/06/08 01:21:37;;;;;;;29.23;26.63;;;17.00;99.90;;;;;;5058727;28;21242;-45
2023/06/08 01:24:11;;;;;;;29.10;26.43;;;17.00;99.90;;;;;;5057936;28;20490;-45
2023/06/08 01:26:42;;;;;;;28.80;26.30;;;17.00;99.90;;;;;;5058617;28;20430;-43
2023/06/08 01:29:10;;;;;;;28.17;25.67;;;17.00;99.90;;;;;;5056978;28;20435;-44
2023/06/08 01:31:37;;;;;;;30.50;27.60;;;17.00;99.90;;;;;;5058460;28;20458;-42
2023/06/08 01:34:06;;;;;;;32.00;29.07;;;17.00;99.90;;;;;;5059181;28;20453;-45
2023/06/08 01:37:06;;;;;;;32.10;29.10;;;17.00;99.90;;;;;;5059654;28;20520;-45
2023/06/08 01:39:41;;;;;;;30.30;27.63;;;17.00;99.90;;;;;;5058224;28;20443;-43
2023/06/08 01:42:09;;;;;;;29.77;27.20;;;17.00;99.90;;;;;;5058813;28;20872;-45
2023/06/08 01:44:40;;;;;;;28.93;26.33;;;17.00;99.90;;;;;;5041167;28;20526;-48
2023/06/08 01:47:07;;;;;;;30.40;27.70;;;17.00;99.90;;;;;;5059533;28;20459;-44
2023/06/08 01:49:33;;;;;;;30.73;27.93;;;16.90;99.90;;;;;;5057293;28;20431;-51
2023/06/08 01:51:59;;;;;;;30.57;27.87;;;16.90;99.90;;;;;;5058901;28;20619;-59
2023/06/08 01:54:24;;;;;;;30.23;27.37;;;16.90;99.90;;;;;;5058297;28;20445;-54
2023/06/08 01:56:50;;;;;;;29.07;26.47;;;16.90;99.90;;;;;;5059136;28;20415;-59
2023/06/08 01:59:16;;;;;;;29.83;27.03;;;16.90;99.90;;;;;;5057318;28;20200;-59
2023/06/08 02:01:41;;;;;;;29.70;27.00;;;16.90;99.90;;;;;;5057856;28;20269;-59
2023/06/08 02:04:07;;;;;;;29.43;26.73;;;16.90;99.90;;;;;;5059411;28;20568;-54
2023/06/08 02:06:33;;;;;;;30.90;28.10;;;16.90;99.90;;;;;;5058527;28;20247;-51
2023/06/08 02:09:00;;;;;;;30.80;27.93;;;16.90;99.90;;;;;;5059153;28;20818;-53
2023/06/08 02:11:26;;;;;;;29.80;27.20;;;16.80;99.90;;;;;;5059543;28;20257;-54
2023/06/08 02:13:52;;;;;;;29.33;26.77;;;16.80;99.90;;;;;;5059092;28;21514;-57
2023/06/08 02:16:20;;;;;;;30.50;27.67;;;16.80;99.90;;;;;;5059099;28;20455;-59
2023/06/08 02:18:46;;;;;;;28.93;26.40;;;16.80;99.90;;;;;;5059179;28;20643;-56
2023/06/08 02:21:12;;;;;;;29.03;26.43;;;16.80;99.90;;;;;;5058894;28;20454;-57
2023/06/08 02:23:38;;;;;;;31.80;28.80;;;16.80;99.90;;;;;;5058472;28;20470;-54
2023/06/08 02:26:06;;;;;;;30.00;27.40;;;16.80;99.90;;;;;;5058963;28;20232;-60
2023/06/08 02:28:31;;;;;;;30.87;27.87;;;16.70;99.90;;;;;;5058149;28;20515;-60
2023/06/08 02:30:57;;;;;;;32.20;29.10;;;16.70;99.90;;;;;;5058890;28;20427;-58
2023/06/08 02:33:23;;;;;;;31.97;29.03;;;16.70;99.90;;;;;;5059326;28;20196;-56
2023/06/08 02:35:49;;;;;;;31.40;28.50;;;16.70;99.90;;;;;;5062113;28;20185;-49
2023/06/08 02:38:15;;;;;;;30.93;28.13;;;16.70;99.90;;;;;;5062525;28;20263;-59
2023/06/08 02:40:42;;;;;;;30.90;28.10;;;16.70;99.90;;;;;;5062111;28;21033;-59
2023/06/08 02:43:08;;;;;;;31.13;28.13;;;16.70;99.90;;;;;;5062522;28;20343;-58
2023/06/08 02:45:34;;;;;;;31.13;28.20;;;16.70;99.90;;;;;;5062185;28;20426;-58
2023/06/08 02:48:00;;;;;;;31.10;28.23;;;16.70;99.90;;;;;;5062854;28;20411;-60
2023/06/08 02:50:26;;;;;;;31.00;28.13;;;16.70;99.90;;;;;;5062292;28;20499;-59
2023/06/08 02:52:52;;;;;;;33.13;29.83;;;16.70;99.90;;;;;;5061856;28;20484;-55
2023/06/08 02:55:17;;;;;;;32.10;29.20;;;16.70;99.90;;;;;;5062095;28;20189;-55
2023/06/08 02:57:43;;;;;;;32.67;29.57;;;16.70;99.90;;;;;;5061126;28;20246;-58
2023/06/08 03:00:13;;;;;;;31.60;28.40;;;16.70;99.90;;;;;;5061537;28;20205;-58
2023/06/08 03:02:39;;;;;;;32.40;29.20;;;16.60;99.90;;;;;;5061621;28;20423;-58
2023/06/08 03:05:05;;;;;;;33.37;30.20;;;16.60;99.90;;;;;;5061982;28;20426;-56
2023/06/08 03:07:33;;;;;;;32.40;29.30;;;16.60;99.90;;;;;;5062054;28;20173;-58
2023/06/08 03:10:02;;;;;;;33.83;30.57;;;16.60;99.90;;;;;;5061902;28;20421;-51
2023/06/08 03:12:29;;;;;;;33.50;30.10;;;16.60;99.90;;;;;;5061970;28;20415;-54
2023/06/08 03:14:54;;;;;;;32.50;29.20;;;16.50;99.90;;;;;;5061772;28;20905;-49
2023/06/08 03:17:20;;;;;;;33.40;30.10;;;16.50;99.90;;;;;;5061836;28;20415;-58
2023/06/08 03:19:46;;;;;;;33.70;30.57;;;16.50;99.90;;;;;;5061353;28;20557;-54
2023/06/08 03:22:12;;;;;;;33.07;29.87;;;16.50;99.90;;;;;;5061685;28;20544;-60
2023/06/08 03:24:37;;;;;;;32.47;29.47;;;16.50;99.90;;;;;;5061451;28;20232;-54
2023/06/08 03:27:06;;;;;;;32.57;29.47;;;16.50;99.90;;;;;;5061047;28;20647;-54
2023/06/08 03:29:31;;;;;;;31.80;28.60;;;16.50;99.90;;;;;;5061529;28;20671;-59
2023/06/08 03:31:58;;;;;;;31.13;28.20;;;16.50;99.90;;;;;;5061207;28;20422;-54
2023/06/08 03:34:27;;;;;;;31.73;28.73;;;16.50;99.90;;;;;;5061248;28;20192;-55
2023/06/08 03:36:54;;;;;;;31.20;28.30;;;16.60;99.90;;;;;;5061104;28;20435;-51
2023/06/08 03:39:19;;;;;;;31.60;28.70;;;16.60;99.90;;;;;;5061774;28;20446;-59
2023/06/08 03:41:45;;;;;;;32.17;28.97;;;16.60;99.90;;;;;;5061136;28;20478;-52
2023/06/08 03:44:11;;;;;;;30.07;27.17;;;16.70;99.90;;;;;;5061410;28;20355;-44
2023/06/08 03:46:36;;;;;;;32.60;29.50;;;16.70;99.90;;;;;;5060862;28;20192;-45
2023/06/08 03:49:02;;;;;;;32.87;29.63;;;16.70;99.90;;;;;;5061043;28;20177;-43
2023/06/08 03:51:28;;;;;;;31.60;28.40;;;16.70;99.90;;;;;;5061665;28;20177;-46
2023/06/08 03:53:53;;;;;;;31.87;28.87;;;16.70;99.90;;;;;;5061264;28;20198;-44
2023/06/08 03:56:19;;;;;;;33.57;30.50;;;16.70;99.90;;;;;;5061564;28;20181;-49
2023/06/08 03:58:45;;;;;;;33.20;30.10;;;16.70;99.90;;;;;;5059091;28;20199;-44
2023/06/08 04:01:14;;;;;;;33.93;30.40;;;16.70;99.90;;;;;;5060262;28;20209;-49
2023/06/08 04:03:41;;;;;;;31.17;28.27;;;16.70;99.90;;;;;;5060900;28;20258;-44
2023/06/08 04:06:10;;;;;;;30.80;27.70;;;16.70;99.90;;;;;;5061069;28;20411;-44
2023/06/08 04:08:40;;;;;;;32.70;29.67;;;16.70;99.90;;;;;;5060209;28;20990;-42
2023/06/08 04:11:09;;;;;;;32.13;29.23;;;16.70;99.90;;;;;;5059450;28;20788;-44
2023/06/08 04:13:40;;;;;;;33.23;30.10;;;16.80;99.90;;;;;;5060363;28;20443;-45
2023/06/08 04:16:09;;;;;;;32.87;29.70;;;16.70;99.90;;;;;;5060732;28;20468;-45
2023/06/08 04:18:36;;;;;;;31.60;28.63;;;16.80;99.90;;;;;;5058845;28;20446;-47
2023/06/08 04:21:02;;;;;;;31.50;28.50;;;16.80;99.90;;;;;;5060397;28;20549;-44
2023/06/08 04:23:28;;;;;;;31.23;28.13;;;16.90;99.90;;;;;;5040732;28;20478;-45
2023/06/08 04:25:54;;;;;;;31.93;28.73;;;16.90;99.90;;;;;;5059599;28;20411;-46
2023/06/08 04:28:21;;;;;;;32.20;28.90;;;16.90;99.90;;;;;;5059053;28;20420;-44
2023/06/08 04:30:50;;;;;;;32.57;29.70;;;17.00;99.90;;;;;;5059032;28;20524;-46
2023/06/08 04:33:16;;;;;;;33.40;30.20;;;17.00;99.90;;;;;;5060397;28;20430;-45
2023/06/08 04:35:42;;;;;;;32.80;29.70;;;17.00;99.90;;;;;;5060262;28;20871;-44
2023/06/08 04:38:14;;;;;;;37.37;33.97;;;17.00;99.90;;;;;;5059920;28;20470;-48
2023/06/08 04:40:53;;;;;;;37.27;33.87;;;17.00;99.90;;;;;;5059023;28;21032;-48
2023/06/08 04:43:25;;;;;;;36.40;33.20;;;17.00;99.90;;;;;;5059187;28;20431;-46
2023/06/08 04:45:57;;;;;;;38.00;34.70;;;16.90;99.90;;;;;;5041839;28;20426;-47
2023/06/08 04:48:25;;;;;;;35.23;32.00;;;16.80;99.90;;;;;;5059603;28;20473;-45
2023/06/08 04:50:52;;;;;;;38.37;34.77;;;16.80;99.90;;;;;;5059901;28;20476;-45
2023/06/08 04:53:18;;;;;;;39.30;35.70;;;16.80;99.90;;;;;;5059814;28;20415;-49
2023/06/08 04:55:45;;;;;;;38.43;34.97;;;16.80;99.90;;;;;;5059601;28;20572;-50
2023/06/08 04:58:11;;;;;;;38.80;35.20;;;16.80;99.90;;;;;;5057969;28;20446;-46
2023/06/08 05:00:37;;;;;;;37.63;33.90;;;16.80;99.90;;;;;;5058505;28;21043;-45
2023/06/08 05:03:02;;;;;;;36.90;33.43;;;16.80;99.90;;;;;;5059557;28;20517;-46
2023/06/08 05:05:28;;;;;;;38.80;35.20;;;16.80;99.90;;;;;;5059497;28;20181;-45
2023/06/08 05:07:54;;;;;;;40.50;36.70;;;16.90;99.90;;;;;;5059600;28;20273;-44
2023/06/08 05:10:20;;;;;;;38.80;35.17;;;16.90;99.90;;;;;;5059431;28;20566;-47
2023/06/08 05:12:46;;;;;;;40.23;36.47;;;16.80;99.90;;;;;;5059735;28;20774;-42
2023/06/08 05:15:11;;;;;;;38.90;35.33;;;16.80;99.90;;;;;;5059999;28;20425;-46
2023/06/08 05:17:37;;;;;;;39.57;35.77;;;16.90;99.90;;;;;;5059689;28;20181;-51
2023/06/08 05:20:03;;;;;;;38.77;35.00;;;16.90;99.90;;;;;;5059499;28;20185;-43
2023/06/08 05:22:28;;;;;;;40.20;36.40;;;17.00;99.90;;;;;;5058097;28;20213;-48
2023/06/08 05:24:54;;;;;;;40.37;36.47;;;17.00;99.90;;;;;;5040954;28;20558;-47
2023/06/08 05:27:20;;;;;;;39.77;36.07;;;17.00;99.90;;;;;;5059640;28;20180;-47
2023/06/08 05:29:45;;;;;;;41.60;37.80;;;16.90;99.90;;;;;;5059254;28;20415;-46
2023/06/08 05:32:11;;;;;;;39.53;35.87;;;16.90;99.90;;;;;;5059449;28;20287;-47
2023/06/08 05:34:37;;;;;;;41.40;37.40;;;17.00;99.90;;;;;;5059979;28;20188;-45
2023/06/08 05:37:02;;;;;;;40.60;36.60;;;17.00;99.90;;;;;;5059732;28;20203;-47
2023/06/08 05:39:28;;;;;;;40.63;36.73;;;17.00;99.90;;;;;;5059788;28;20193;-46
2023/06/08 05:41:54;;;;;;;39.97;36.03;;;17.00;99.90;;;;;;5057300;28;20377;-47
2023/06/08 05:44:19;;;;;;;39.67;36.03;;;17.00;99.90;;;;;;5059505;28;20181;-47
2023/06/08 05:46:45;;;;;;;40.63;36.83;;;17.10;99.90;;;;;;5040977;28;20181;-49
2023/06/08 05:49:11;;;;;;;40.20;36.60;;;17.20;99.90;;;;;;5059369;28;20260;-49
2023/06/08 05:51:36;;;;;;;41.63;37.73;;;17.30;99.90;;;;;;5039833;28;20271;-52
2023/06/08 05:54:02;;;;;;;41.27;37.47;;;17.30;99.90;;;;;;5058457;28;20192;-48
2023/06/08 05:56:28;;;;;;;40.57;36.80;;;17.40;99.90;;;;;;5059792;28;20554;-46
2023/06/08 05:58:54;;;;;;;38.90;35.20;;;17.40;99.90;;;;;;5059012;28;20416;-47
2023/06/08 06:01:20;;;;;;;40.23;36.50;;;17.50;99.90;;;;;;5059060;28;20193;-46
2023/06/08 06:03:46;;;;;;;39.33;35.63;;;17.60;99.90;;;;;;5059423;28;20184;-49
2023/06/08 06:06:12;;;;;;;39.73;36.17;;;17.70;99.90;;;;;;5059314;28;20407;-51
2023/06/08 06:08:38;;;;;;;39.77;35.93;;;17.80;99.90;;;;;;5060146;28;20795;-48
2023/06/08 06:11:03;;;;;;;40.40;36.50;;;17.80;99.90;;;;;;5063117;28;20704;-56
2023/06/08 06:13:31;;;;;;;40.00;36.27;;;17.90;99.90;;;;;;5062980;28;20188;-54
2023/06/08 06:15:58;;;;;;;40.73;36.87;;;18.00;99.90;;;;;;5063355;28;20180;-58
2023/06/08 06:18:23;;;;;;;40.83;37.10;;;18.10;99.90;;;;;;5063019;28;20423;-54
2023/06/08 06:20:49;;;;;;;43.67;39.37;;;18.20;99.90;;;;;;5061719;28;21237;-55
2023/06/08 06:23:14;;;;;;;40.10;36.40;;;18.30;99.90;;;;;;5062201;28;20225;-57
2023/06/08 06:25:40;;;;;;;40.10;36.30;;;18.30;99.90;;;;;;5063059;28;20587;-51
2023/06/08 06:28:06;;;;;;;40.50;36.90;;;18.30;99.90;;;;;;5062784;28;20192;-51
2023/06/08 06:30:31;;;;;;;41.80;38.10;;;18.40;99.90;;;;;;5062587;28;20246;-52
2023/06/08 06:32:57;;;;;;;41.27;37.57;;;18.40;99.90;;;;;;5061303;28;20205;-55
2023/06/08 06:35:22;;;;;;;40.23;36.70;;;18.50;99.90;;;;;;5062859;28;20260;-51
2023/06/08 06:37:49;;;;;;;39.50;35.90;;;18.70;99.90;;;;;;5062787;28;20213;-52
2023/06/08 06:40:15;;;;;;;38.90;35.50;;;19.00;99.90;;;;;;5062627;28;20200;-54
2023/06/08 06:42:40;;;;;;;37.20;34.10;;;19.10;99.90;;;;;;5044120;28;20430;-59
2023/06/08 06:45:08;;;;;;;38.33;35.23;;;19.20;99.90;;;;;;5062426;28;20659;-56
2023/06/08 06:47:33;;;;;;;39.60;36.10;;;19.40;99.90;;;;;;5044364;28;20181;-54
2023/06/08 06:50:00;;;;;;;35.37;32.57;;;19.50;99.90;;;;;;5062314;28;20482;-57
2023/06/08 06:52:25;;;;;;;35.27;32.40;;;19.70;99.90;;;;;;5061971;28;20187;-56
2023/06/08 06:54:51;;;;;;;35.50;32.70;;;19.80;99.90;;;;;;5061921;28;20435;-55
2023/06/08 06:57:17;;;;;;;34.20;31.60;;;19.90;99.90;;;;;;5062017;28;20274;-58
2023/06/08 06:59:42;;;;;;;33.83;31.10;;;20.10;99.90;;;;;;5062107;28;20270;-58
2023/06/08 07:02:08;;;;;;;36.07;33.27;;;20.20;99.90;;;;;;5061942;28;20397;-57
2023/06/08 07:04:34;;;;;;;34.00;31.30;;;20.40;99.90;;;;;;5062287;28;20302;-58
2023/06/08 07:07:00;;;;;;;33.60;31.10;;;20.60;99.90;;;;;;5061893;28;20504;-57
2023/06/08 07:09:25;;;;;;;32.83;30.43;;;20.70;99.90;;;;;;5062155;28;20184;-57
2023/06/08 07:11:51;;;;;;;33.60;31.10;;;21.00;99.90;;;;;;5061866;28;20189;-56
2023/06/08 07:14:17;;;;;;;35.57;32.87;;;21.10;99.90;;;;;;5062117;28;20631;-53
2023/06/08 07:16:43;;;;;;;33.80;31.10;;;21.30;99.90;;;;;;5062040;28;20878;-56
2023/06/08 07:19:08;;;;;;;35.00;32.10;;;21.40;99.90;;;;;;5061800;28;20235;-58
2023/06/08 07:21:38;;;;;;;33.33;30.80;;;21.50;99.90;;;;;;5042805;28;20291;-57
2023/06/08 07:24:04;;;;;;;33.53;30.93;;;21.70;99.90;;;;;;5060871;28;20288;-54
2023/06/08 07:26:30;;;;;;;35.10;32.20;;;21.80;99.90;;;;;;5058835;28;20840;-53
2023/06/08 07:28:57;;;;;;;33.60;31.10;;;21.60;99.90;;;;;;5061027;28;20522;-59
2023/06/08 07:31:23;;;;;;;35.07;32.47;;;21.70;99.90;;;;;;5060939;28;20173;-58
2023/06/08 07:33:50;;;;;;;32.73;30.10;;;21.80;99.90;;;;;;5060940;28;20791;-58
2023/06/08 07:36:16;;;;;;;33.87;31.37;;;22.00;99.90;;;;;;5060520;28;20923;-55
2023/06/08 07:38:42;;;;;;;33.97;31.40;;;22.10;99.90;;;;;;5061071;28;20936;-58
2023/06/08 07:41:07;;;;;;;32.93;30.57;;;22.10;99.90;;;;;;5060653;28;20209;-57
2023/06/08 07:43:33;;;;;;;33.50;30.90;;;22.30;99.90;;;;;;5061450;28;20192;-51
2023/06/08 07:45:58;;;;;;;33.33;30.83;;;22.50;99.90;;;;;;5060999;28;20181;-55
2023/06/08 07:48:24;;;;;;;33.33;30.93;;;22.30;99.90;;;;;;5061341;28;20188;-53
2023/06/08 07:50:50;;;;;;;34.90;32.40;;;22.30;99.90;;;;;;5061420;28;20634;-58
2023/06/08 07:53:17;;;;;;;33.80;31.30;;;22.40;99.90;;;;;;5059464;28;20184;-59
2023/06/08 07:55:42;;;;;;;32.00;29.60;;;22.60;99.90;;;;;;5060525;28;20200;-58
2023/06/08 07:58:08;;;;;;;32.93;30.53;;;22.70;99.90;;;;;;5060872;28;20462;-56
2023/06/08 08:00:35;;;;;;;33.33;30.83;;;22.80;99.90;;;;;;5060840;28;20667;-54
2023/06/08 08:03:03;;;;;;;32.10;29.80;;;22.70;99.90;;;;;;5061122;28;20631;-50
2023/06/08 08:05:29;;;;;;;33.27;30.87;;;22.70;99.90;;;;;;5060909;28;20423;-58
2023/06/08 08:07:55;;;;;;;32.77;30.37;;;22.90;99.90;;;;;;5060845;28;20412;-56
2023/06/08 08:10:21;;;;;;;33.63;31.23;;;22.90;99.90;;;;;;5042742;28;20505;-59
2023/06/08 08:12:46;;;;;;;33.77;31.30;;;22.90;99.90;;;;;;5060814;28;20177;-57
2023/06/08 08:15:12;;;;;;;31.20;28.90;;;22.90;99.90;;;;;;5060765;28;20968;-55
2023/06/08 08:17:37;;;;;;;33.27;30.87;;;23.00;99.90;;;;;;5060782;28;20188;-59
2023/06/08 08:20:04;;;;;;;33.03;30.50;;;23.10;99.90;;;;;;5060375;28;20227;-54
2023/06/08 08:22:31;;;;;;;32.23;29.70;;;23.10;99.90;;;;;;5060624;28;20225;-59
2023/06/08 08:24:57;;;;;;;30.83;28.73;;;23.20;99.90;;;;;;5059680;28;20561;-52
2023/06/08 08:27:23;;;;;;;30.47;28.37;;;23.40;99.90;;;;;;5042480;28;20451;-59
2023/06/08 08:29:48;;;;;;;31.03;29.00;;;23.50;99.90;;;;;;5060337;28;20185;-54
2023/06/08 08:32:14;;;;;;;32.80;30.40;;;23.60;99.90;;;;;;5059002;28;20196;-58
2023/06/08 08:34:40;;;;;;;32.07;29.77;;;23.80;99.90;;;;;;5060526;28;20187;-53
2023/06/08 08:37:06;;;;;;;31.63;29.43;;;23.80;99.90;;;;;;5060379;28;20173;-56
2023/06/08 08:39:32;;;;;;;30.50;28.30;;;23.90;99.90;;;;;;5060093;28;20438;-55
2023/06/08 08:42:01;;;;;;;31.40;29.10;;;24.10;99.90;;;;;;5060503;28;20718;-59
2023/06/08 08:44:29;;;;;;;28.90;26.90;;;24.40;99.90;;;;;;5060093;28;20498;-51
2023/06/08 08:46:56;;;;;;;31.80;29.60;;;24.60;99.90;;;;;;5059887;28;20415;-54
2023/06/08 08:49:24;;;;;;;29.63;27.53;;;24.70;99.90;;;;;;5059107;28;20518;-57
2023/06/08 08:51:52;;;;;;;29.97;27.97;;;24.80;99.90;;;;;;5059934;28;20992;-58
2023/06/08 08:54:25;;;;;;;29.70;27.70;;;24.90;99.70;;;;;;5059409;28;20825;-53
2023/06/08 08:56:55;;;;;;;29.40;27.17;;;25.00;99.20;;;;;;5042079;28;20435;-52
2023/06/08 08:59:23;;;;;;;27.50;25.70;;;24.80;95.10;;;;;;5059702;28;20442;-60
2023/06/08 09:01:48;;;;;;;28.43;26.43;;;24.90;95.50;;;;;;5059671;28;20814;-59
2023/06/08 09:04:14;;;;;;;27.77;25.87;;;25.00;99.10;;;;;;5059831;28;20422;-57
2023/06/08 09:06:47;;;;;;;27.53;25.70;;;25.40;98.90;;;;;;5059792;28;20230;-59
2023/06/08 09:09:12;;;;;;;29.67;27.37;;;25.60;94.50;;;;;;5060110;28;20282;-59
2023/06/08 09:12:01;;;;;;;30.53;28.53;;;25.70;93.20;;;;;;5059809;28;20842;-59
2023/06/08 09:14:27;;;;;;;27.70;25.87;;;25.70;92.30;;;;;;5059857;28;20185;-56
2023/06/08 09:16:53;;;;;;;27.80;26.00;;;26.00;93.40;;;;;;5060143;28;21207;-59
2023/06/08 09:19:19;;;;;;;29.23;27.13;;;26.40;95.00;;;;;;5059763;28;20427;-59
2023/06/08 09:21:45;;;;;;;30.43;28.03;;;26.60;85.60;;;;;;5059471;28;20197;-55
2023/06/08 09:24:22;;;;;;;26.07;24.37;;;27.00;88.00;;;;;;5058889;28;20529;-59
2023/06/08 09:26:55;;;;;;;27.87;26.07;;;27.50;91.80;;;;;;5059436;28;20495;-55
2023/06/08 09:29:39;;;;;;;27.30;25.60;;;28.00;90.10;;;;;;5059508;28;20902;-59
2023/06/08 09:32:12;;;;;;;28.73;26.90;;;28.60;90.10;;;;;;5059413;28;21035;-54
2023/06/08 09:35:04;;;;;;;27.97;26.37;;;29.30;79.50;;;;;;5059672;28;20419;-59
2023/06/08 09:37:36;;;;;;;27.50;25.80;;;29.80;73.20;;;;;;5059560;28;20481;-55
2023/06/08 09:40:09;;;;;;;26.93;25.33;;;30.20;68.30;;;;;;5059177;28;20457;-57
2023/06/08 09:42:43;;;;;;;27.77;26.17;;;30.40;65.30;;;;;;5059468;28;20412;-57
2023/06/08 09:45:12;;;;;;;28.60;26.57;;;30.70;59.60;;;;;;5058958;28;20825;-59
2023/06/08 09:47:38;;;;;;;26.87;25.20;;;31.10;56.70;;;;;;5040854;28;20431;-56
2023/06/08 09:50:07;;;;;;;26.63;25.03;;;31.50;51.80;;;;;;5059521;28;20480;-59
2023/06/08 09:52:34;;;;;;;27.30;25.53;;;31.40;46.60;;;;;;5059255;28;20180;-59
2023/06/08 09:55:00;;;;;;;26.37;24.70;;;31.40;47.80;;;;;;5059205;28;20910;-59
2023/06/08 09:57:28;;;;;;;26.13;24.63;;;31.40;46.10;;;;;;5059235;28;21012;-59
2023/06/08 10:00:14;;;;;;;25.37;23.87;;;31.40;44.70;;;;;;5059411;28;20426;-59
2023/06/08 10:02:58;;;;;;;26.70;25.10;;;31.60;46.30;;;;;;5059254;28;20431;-60
2023/06/08 10:05:28;;;;;;;24.97;23.53;;;32.00;46.30;;;;;;5059110;28;20780;-60
2023/06/08 10:07:58;;;;;;;24.53;23.13;;;32.40;45.80;;;;;;5058446;28;20716;-59
2023/06/08 10:10:31;;;;;;;24.20;22.80;;;32.70;45.10;;;;;;5058957;28;20411;-54
2023/06/08 10:12:58;;;;;;;25.57;24.07;;;33.20;45.80;;;;;;5059611;28;20856;-54
2023/06/08 10:15:25;;;;;;;26.37;24.67;;;33.50;40.00;;;;;;5059320;28;20415;-58
2023/06/08 10:17:51;;;;;;;23.90;22.60;;;33.70;39.90;;;;;;5059159;28;20415;-55
2023/06/08 10:20:17;;;;;;;24.53;23.10;;;34.10;38.80;;;;;;5059376;28;20438;-56
2023/06/08 10:22:45;;;;;;;24.67;23.27;;;34.10;37.90;;;;;;5058673;28;20658;-59
2023/06/08 10:25:13;;;;;;;22.57;21.27;;;34.10;40.80;;;;;;5059079;28;20181;-54
2023/06/08 10:27:46;;;;;;;23.00;21.73;;;34.50;38.40;;;;;;5059295;28;20411;-56
2023/06/08 10:30:28;;;;;;;23.00;21.80;;;34.80;36.00;;;;;;5058676;28;20427;-54
2023/06/08 10:33:05;;;;;;;23.67;22.27;;;34.70;34.10;;;;;;5059436;28;20422;-57
2023/06/08 10:35:31;;;;;;;24.00;22.60;;;34.60;32.00;;;;;;5058997;28;20465;-57
2023/06/08 10:38:16;;;;;;;23.13;21.93;;;35.10;31.00;;;;;;5058837;28;20518;-56
2023/06/08 10:40:50;;;;;;;22.00;20.80;;;35.60;31.00;;;;;;5057424;28;20205;-53
2023/06/08 10:43:17;;;;;;;22.57;21.37;;;36.00;29.30;;;;;;5058844;28;20709;-47
2023/06/08 10:45:46;;;;;;;21.30;20.03;;;36.10;29.10;;;;;;5057947;28;20435;-48
2023/06/08 10:48:18;;;;;;;22.20;21.00;;;36.00;29.10;;;;;;5059046;28;20810;-43
2023/06/08 10:50:45;;;;;;;22.63;21.40;;;36.40;26.60;;;;;;5059300;28;20935;-49
2023/06/08 10:53:11;;;;;;;21.37;20.27;;;36.20;25.70;;;;;;5059529;28;21284;-48
2023/06/08 10:55:37;;;;;;;21.80;20.60;;;36.20;26.90;;;;;;5059413;28;20415;-47
2023/06/08 10:58:21;;;;;;;21.30;20.20;;;35.80;25.80;;;;;;5062276;28;20212;-44
2023/06/08 11:00:52;;;;;;;20.80;19.70;;;35.00;26.70;;;;;;5061643;28;20197;-50
2023/06/08 11:03:21;;;;;;;21.00;19.70;;;35.20;28.20;;;;;;5062287;28;20410;-46
2023/06/08 11:05:53;;;;;;;21.80;20.60;;;36.00;28.90;;;;;;5062606;28;20416;-45
2023/06/08 11:08:20;;;;;;;20.00;18.90;;;36.30;28.60;;;;;;5062331;28;20932;-44
2023/06/08 11:10:54;;;;;;;20.63;19.53;;;36.20;25.30;;;;;;5062247;28;20472;-48
2023/06/08 11:13:20;;;;;;;20.50;19.47;;;35.70;25.80;;;;;;5061165;28;20435;-49
2023/06/08 11:15:47;;;;;;;20.30;19.20;;;36.00;27.60;;;;;;5061964;28;20420;-51
2023/06/08 11:18:12;;;;;;;21.13;20.03;;;36.20;28.50;;;;;;5061866;28;20176;-48
2023/06/08 11:20:41;;;;;;;21.40;20.20;;;36.20;25.30;;;;;;5061645;28;20906;-45
2023/06/08 11:23:11;;;;;;;20.57;19.47;;;36.00;26.70;;;;;;5061420;28;20683;-48
2023/06/08 11:25:38;;;;;;;21.27;20.17;;;36.00;26.30;;;;;;5062060;28;20415;-51
2023/06/08 11:28:07;;;;;;;18.60;17.70;;;36.50;26.10;;;;;;5061927;28;20423;-45
2023/06/08 11:30:33;;;;;;;20.10;19.10;;;36.50;27.50;;;;;;5061439;28;20412;-49
2023/06/08 11:32:59;;;;;;;19.07;18.10;;;37.20;27.90;;;;;;5061750;28;20506;-46
2023/06/08 11:35:25;;;;;;;20.03;19.03;;;37.90;26.80;;;;;;5061681;28;20419;-45
2023/06/08 11:37:59;;;;;;;19.57;18.57;;;38.20;25.20;;;;;;5060617;28;20412;-47
2023/06/08 11:40:25;;;;;;;20.00;19.00;;;38.70;24.70;;;;;;5060935;28;20209;-46
2023/06/08 11:42:51;;;;;;;20.90;19.87;;;38.70;24.00;;;;;;5061265;28;20542;-44
2023/06/08 11:45:18;;;;;;;19.37;18.37;;;39.30;23.60;;;;;;5061744;28;20873;-47
2023/06/08 11:47:45;;;;;;;20.53;19.53;;;39.80;24.20;;;;;;5061623;28;20449;-44
2023/06/08 11:50:14;;;;;;;21.53;20.33;;;40.10;22.30;;;;;;5060846;28;20418;-49
2023/06/08 11:52:42;;;;;;;24.00;22.80;;;40.10;21.50;;;;;;5061026;28;20415;-44
2023/06/08 11:55:12;;;;;;;22.37;21.17;;;39.10;22.10;;;;;;5061234;28;20426;-49
2023/06/08 11:57:45;;;;;;;21.07;19.97;;;38.10;23.40;;;;;;5061165;28;20812;-43
2023/06/08 12:00:27;;;;;;;22.40;21.20;;;37.10;24.80;;;;;;5061264;28;20431;-45
2023/06/08 12:02:56;;;;;;;22.40;21.20;;;36.20;25.90;;;;;;5060747;28;20439;-46
2023/06/08 12:05:25;;;;;;;23.73;22.43;;;35.30;26.30;;;;;;5060755;28;20444;-46
2023/06/08 12:08:08;;;;;;;23.13;21.87;;;34.40;27.80;;;;;;5060853;28;20444;-45
2023/06/08 12:10:38;;;;;;;23.30;22.00;;;33.80;28.40;;;;;;5060106;28;20556;-45
2023/06/08 12:13:09;;;;;;;23.60;22.30;;;33.00;29.60;;;;;;5060806;28;20418;-45
2023/06/08 12:15:45;;;;;;;23.73;22.43;;;32.20;32.00;;;;;;5061242;28;20423;-44
2023/06/08 12:18:11;;;;;;;24.93;23.43;;;31.60;32.00;;;;;;5060537;28;20567;-48
2023/06/08 12:20:38;;;;;;;23.40;22.10;;;31.30;34.80;;;;;;5059344;28;20447;-44
2023/06/08 12:23:04;;;;;;;23.20;21.80;;;30.90;38.40;;;;;;5060357;28;20467;-46
2023/06/08 12:25:30;;;;;;;23.47;22.17;;;30.50;39.00;;;;;;5060458;28;20969;-46
2023/06/08 12:27:57;;;;;;;23.20;21.80;;;30.00;39.20;;;;;;5060552;28;20431;-45
2023/06/08 12:30:23;;;;;;;23.13;21.83;;;29.60;41.50;;;;;;5060491;28;20519;-48
2023/06/08 12:32:49;;;;;;;21.80;20.60;;;29.10;40.70;;;;;;5060477;28;20431;-45